Time;durP1;ratioP1;P1;durP2;ratioP2;P2;SDS_P1;SDS_P2;PMS_P1;PMS_P2;Temp;Humidity;BMP_temperature;BMP_pressure;BME280_temperature;BME280_humidity;BME280_pressure;Samples;Min_cycle;Max_cycle;Signal;HPM_P1;HPM_P2
2022/09/06 00:00:33;;;;;;;8.10;3.40;;;;;;;;;;5063518;28;20043;-61
2022/09/06 00:02:59;;;;;;;7.83;3.47;;;;;;;;;;5062651;28;20048;-61
2022/09/06 00:05:26;;;;;;;5.43;3.17;;;;;;;;;;5064464;28;20086;-61
2022/09/06 00:07:52;;;;;;;9.43;3.60;;;;;;;;;;5061645;28;20089;-61
2022/09/06 00:10:18;;;;;;;5.60;3.30;;;;;;;;;;5066010;28;20446;-61
2022/09/06 00:12:44;;;;;;;9.83;3.57;;;;;;;;;;5060897;28;20048;-61
2022/09/06 00:15:10;;;;;;;6.03;3.77;;;;;;;;;;5067038;28;20526;-61
2022/09/06 00:17:37;;;;;;;7.20;3.50;;;;;;;;;;5059441;28;20037;-61
2022/09/06 00:20:03;;;;;;;6.53;3.93;;;;;;;;;;5060380;28;20052;-61
2022/09/06 00:22:29;;;;;;;5.30;3.70;;;;;;;;;;5065796;28;20055;-61
2022/09/06 00:24:56;;;;;;;10.67;3.53;;;;;;;;;;5066689;28;20049;-61
2022/09/06 00:27:22;;;;;;;6.23;3.20;;;;;;;;;;5066740;28;20052;-61
2022/09/06 00:29:48;;;;;;;5.27;3.40;;;;;;;;;;5059065;28;20091;-61
2022/09/06 00:32:14;;;;;;;5.40;3.13;;;;;;;;;;5066579;28;20048;-61
2022/09/06 00:34:41;;;;;;;5.47;3.50;;;;;;;;;;5066841;28;20044;-61
2022/09/06 00:37:06;;;;;;;6.17;4.00;;;;;;;;;;5059072;28;20048;-61
2022/09/06 00:39:33;;;;;;;7.90;4.40;;;;;;;;;;5066248;28;20041;-61
2022/09/06 00:41:59;;;;;;;6.47;4.30;;;;;;;;;;5066820;28;20094;-61
2022/09/06 00:44:25;;;;;;;5.27;3.90;;;;;;;;;;5059205;28;20049;-61
2022/09/06 00:46:52;;;;;;;5.77;3.70;;;;;;;;;;5066775;28;20044;-61
2022/09/06 00:49:23;;;;;;;5.97;3.90;;;;;;;;;;5067046;28;20134;-61
2022/09/06 00:51:55;;;;;;;5.40;4.30;;;;;;;;;;5066793;28;20052;-60
2022/09/06 00:54:21;;;;;;;5.43;4.50;;;;;;;;;;5066241;28;20047;-61
2022/09/06 00:56:47;;;;;;;6.43;4.70;;;;;;;;;;5062233;28;20053;-61
2022/09/06 00:59:14;;;;;;;8.27;4.27;;;;;;;;;;5062443;28;20524;-61
2022/09/06 01:01:40;;;;;;;7.67;4.47;;;;;;;;;;5070000;28;20040;-61
2022/09/06 01:04:07;;;;;;;6.43;4.57;;;;;;;;;;5070651;28;20040;-61
2022/09/06 01:06:45;;;;;;;7.07;4.00;;;;;;;;;;5069212;28;20131;-62
2022/09/06 01:09:17;;;;;;;6.73;4.70;;;;;;;;;;5061074;28;20082;-61
2022/09/06 01:12:04;;;;;;;7.63;4.40;;;;;;;;;;5069871;28;20048;-61
2022/09/06 01:14:40;;;;;;;8.03;4.10;;;;;;;;;;5058945;28;20056;-61
2022/09/06 01:17:26;;;;;;;7.70;4.30;;;;;;;;;;5069855;28;20048;-61
2022/09/06 01:20:11;;;;;;;9.57;4.40;;;;;;;;;;5061416;28;20055;-61
2022/09/06 01:22:56;;;;;;;10.03;4.63;;;;;;;;;;5070367;28;20517;-61
2022/09/06 01:25:31;;;;;;;11.77;4.60;;;;;;;;;;5055658;28;20048;-61
2022/09/06 01:28:15;;;;;;;5.70;4.50;;;;;;;;;;5069579;28;20544;-61
2022/09/06 01:30:46;;;;;;;7.60;4.27;;;;;;;;;;5069686;28;20080;-61
2022/09/06 01:33:15;;;;;;;7.57;4.43;;;;;;;;;;5070047;28;20040;-61
2022/09/06 01:35:50;;;;;;;7.03;4.97;;;;;;;;;;5069261;28;20608;-61
2022/09/06 01:38:16;;;;;;;5.20;4.53;;;;;;;;;;5069934;28;20033;-61
2022/09/06 01:40:42;;;;;;;7.43;4.73;;;;;;;;;;5063295;28;20134;-61
2022/09/06 01:43:10;;;;;;;6.10;5.20;;;;;;;;;;5060579;28;20128;-61
2022/09/06 01:45:51;;;;;;;6.50;4.87;;;;;;;;;;5063823;28;20095;-62
2022/09/06 01:48:24;;;;;;;7.13;4.80;;;;;;;;;;5069452;28;20047;-61
2022/09/06 01:51:05;;;;;;;9.07;4.90;;;;;;;;;;5061539;28;20102;-61
2022/09/06 01:53:49;;;;;;;12.53;5.33;;;;;;;;;;5054556;28;20406;-61
2022/09/06 01:56:34;;;;;;;8.30;5.47;;;;;;;;;;5061546;28;20102;-61
2022/09/06 01:59:19;;;;;;;10.23;5.00;;;;;;;;;;5061396;28;20048;-61
2022/09/06 02:01:59;;;;;;;6.77;5.33;;;;;;;;;;5055986;28;20053;-61
2022/09/06 02:04:31;;;;;;;9.73;5.33;;;;;;;;;;5058317;28;20067;-61
2022/09/06 02:07:00;;;;;;;6.23;4.93;;;;;;;;;;5064463;28;20044;-61
2022/09/06 02:09:28;;;;;;;7.07;5.20;;;;;;;;;;5069258;28;20084;-61
2022/09/06 02:11:57;;;;;;;9.33;5.13;;;;;;;;;;5069821;28;20503;-61
2022/09/06 02:14:27;;;;;;;6.77;5.40;;;;;;;;;;5068479;28;20052;-61
2022/09/06 02:16:54;;;;;;;9.63;5.53;;;;;;;;;;5069148;28;20098;-62
2022/09/06 02:19:23;;;;;;;7.33;4.40;;;;;;;;;;5061134;28;20040;-61
2022/09/06 02:21:51;;;;;;;7.13;5.07;;;;;;;;;;5063030;28;20569;-61
2022/09/06 02:24:19;;;;;;;6.50;4.77;;;;;;;;;;5067007;28;20347;-61
2022/09/06 02:26:46;;;;;;;6.10;5.10;;;;;;;;;;5068253;28;20036;-61
2022/09/06 02:29:12;;;;;;;5.90;5.20;;;;;;;;;;5060660;28;20578;-61
2022/09/06 02:31:42;;;;;;;7.63;5.63;;;;;;;;;;5060987;28;20039;-61
2022/09/06 02:34:09;;;;;;;6.83;4.80;;;;;;;;;;5068229;28;20044;-61
2022/09/06 02:36:36;;;;;;;8.20;4.97;;;;;;;;;;5060432;28;20033;-61
2022/09/06 02:39:02;;;;;;;6.17;5.23;;;;;;;;;;5068730;28;20324;-61
2022/09/06 02:41:29;;;;;;;8.03;5.53;;;;;;;;;;5068496;28;20044;-61
2022/09/06 02:43:56;;;;;;;7.17;5.13;;;;;;;;;;5060328;28;20041;-61
2022/09/06 02:46:23;;;;;;;8.40;5.77;;;;;;;;;;5059607;28;20045;-61
2022/09/06 02:48:49;;;;;;;10.07;5.57;;;;;;;;;;5068145;28;20479;-61
2022/09/06 02:51:15;;;;;;;6.80;4.97;;;;;;;;;;5068001;28;20043;-61
2022/09/06 02:53:41;;;;;;;9.87;5.27;;;;;;;;;;5068547;28;20044;-61
2022/09/06 02:56:07;;;;;;;8.60;5.20;;;;;;;;;;5068176;28;20041;-61
2022/09/06 02:58:34;;;;;;;9.63;5.27;;;;;;;;;;5067495;28;20554;-61
2022/09/06 03:01:00;;;;;;;6.37;5.30;;;;;;;;;;5068386;28;20410;-61
2022/09/06 03:03:27;;;;;;;7.00;5.73;;;;;;;;;;5067929;28;20059;-61
2022/09/06 03:05:53;;;;;;;8.10;6.00;;;;;;;;;;5067991;28;20052;-61
2022/09/06 03:08:21;;;;;;;6.73;4.60;;;;;;;;;;5060273;28;20136;-61
2022/09/06 03:10:54;;;;;;;7.33;5.53;;;;;;;;;;5063647;28;20048;-61
2022/09/06 03:13:21;;;;;;;8.70;5.20;;;;;;;;;;5064328;28;20055;-61
2022/09/06 03:15:55;;;;;;;8.27;5.40;;;;;;;;;;5061744;28;20044;-61
2022/09/06 03:18:21;;;;;;;7.90;5.43;;;;;;;;;;5061549;28;20051;-61
2022/09/06 03:20:48;;;;;;;7.30;4.43;;;;;;;;;;5063245;28;20095;-61
2022/09/06 03:23:14;;;;;;;11.03;5.33;;;;;;;;;;5064863;28;20040;-61
2022/09/06 03:25:42;;;;;;;6.40;4.53;;;;;;;;;;5064471;28;20043;-61
2022/09/06 03:28:08;;;;;;;5.67;4.97;;;;;;;;;;5064491;28;21345;-61
2022/09/06 03:30:34;;;;;;;6.90;4.73;;;;;;;;;;5064419;28;20037;-61
2022/09/06 03:33:00;;;;;;;6.40;4.70;;;;;;;;;;5061828;28;20103;-62
2022/09/06 03:35:26;;;;;;;8.13;4.90;;;;;;;;;;5064026;28;20048;-61
2022/09/06 03:37:52;;;;;;;8.77;5.40;;;;;;;;;;5058989;28;20083;-61
2022/09/06 03:40:18;;;;;;;6.37;5.03;;;;;;;;;;5060748;28;20553;-61
2022/09/06 03:42:45;;;;;;;7.63;5.00;;;;;;;;;;5064803;28;20040;-62
2022/09/06 03:45:11;;;;;;;12.23;5.07;;;;;;;;;;5061390;28;20048;-61
2022/09/06 03:47:37;;;;;;;6.10;5.50;;;;;;;;;;5063428;28;20045;-61
2022/09/06 03:50:03;;;;;;;10.70;6.43;;;;;;;;;;5063248;28;20051;-61
2022/09/06 03:52:29;;;;;;;10.97;4.93;;;;;;;;;;5065174;28;20040;-61
2022/09/06 03:54:55;;;;;;;7.97;6.13;;;;;;;;;;5063046;28;20040;-61
2022/09/06 03:57:21;;;;;;;7.87;7.07;;;;;;;;;;5066731;28;20047;-61
2022/09/06 03:59:47;;;;;;;11.37;7.20;;;;;;;;;;5058984;28;20499;-61
2022/09/06 04:02:13;;;;;;;8.47;6.60;;;;;;;;;;5060043;28;20083;-61
2022/09/06 04:04:39;;;;;;;10.37;7.20;;;;;;;;;;5059799;28;20040;-61
2022/09/06 04:07:05;;;;;;;11.20;7.67;;;;;;;;;;5059673;28;20036;-61
2022/09/06 04:09:31;;;;;;;9.57;7.13;;;;;;;;;;5060065;28;20048;-61
2022/09/06 04:11:57;;;;;;;8.23;7.27;;;;;;;;;;5065018;28;20049;-61
2022/09/06 04:14:24;;;;;;;9.47;7.47;;;;;;;;;;5062812;28;20513;-61
2022/09/06 04:16:50;;;;;;;7.83;7.03;;;;;;;;;;5066493;28;20052;-61
2022/09/06 04:19:16;;;;;;;10.03;8.50;;;;;;;;;;5062358;28;20418;-61
2022/09/06 04:21:42;;;;;;;12.90;7.93;;;;;;;;;;5067496;28;20491;-61
2022/09/06 04:24:08;;;;;;;8.87;8.00;;;;;;;;;;5067846;28;20435;-62
2022/09/06 04:26:34;;;;;;;14.37;9.40;;;;;;;;;;5059860;28;20044;-62
2022/09/06 04:29:00;;;;;;;11.53;10.33;;;;;;;;;;5058379;28;20563;-61
2022/09/06 04:31:27;;;;;;;16.17;11.07;;;;;;;;;;5071341;28;20063;-61
2022/09/06 04:33:53;;;;;;;14.60;10.77;;;;;;;;;;5070989;28;20093;-60
2022/09/06 04:36:19;;;;;;;13.53;11.50;;;;;;;;;;5066033;28;20120;-61
2022/09/06 04:38:45;;;;;;;12.43;11.13;;;;;;;;;;5068182;28;20079;-61
2022/09/06 04:41:12;;;;;;;27.30;12.53;;;;;;;;;;5071723;28;20086;-61
2022/09/06 04:43:38;;;;;;;14.17;11.53;;;;;;;;;;5071923;28;20040;-62
2022/09/06 04:46:24;;;;;;;16.70;12.93;;;;;;;;;;5062850;28;20048;-61
2022/09/06 04:48:51;;;;;;;13.60;12.20;;;;;;;;;;5062618;28;20139;-61
2022/09/06 04:51:17;;;;;;;15.47;13.43;;;;;;;;;;5071308;28;20414;-61
2022/09/06 04:53:43;;;;;;;14.57;13.17;;;;;;;;;;5071028;28;20044;-61
2022/09/06 04:56:14;;;;;;;18.07;13.83;;;;;;;;;;5067879;28;20037;-61
2022/09/06 04:58:40;;;;;;;16.17;14.27;;;;;;;;;;5067303;28;20052;-61
2022/09/06 05:01:06;;;;;;;16.80;14.47;;;;;;;;;;5071029;28;20084;-61
2022/09/06 05:03:32;;;;;;;15.97;14.27;;;;;;;;;;5062641;28;20044;-61
2022/09/06 05:06:06;;;;;;;18.50;14.83;;;;;;;;;;5070548;28;20048;-61
2022/09/06 05:08:32;;;;;;;20.02;15.45;;;;;;;;;;5071228;28;20111;-61
2022/09/06 05:10:58;;;;;;;20.97;16.67;;;;;;;;;;5069982;28;20056;-61
2022/09/06 05:13:24;;;;;;;20.30;16.63;;;;;;;;;;5062875;28;20068;-61
2022/09/06 05:15:50;;;;;;;29.00;17.30;;;;;;;;;;5062771;28;20041;-61
2022/09/06 05:18:16;;;;;;;19.17;16.57;;;;;;;;;;5067073;28;20065;-61
2022/09/06 05:20:42;;;;;;;23.47;17.80;;;;;;;;;;5065876;28;20036;-61
2022/09/06 05:23:08;;;;;;;28.47;17.17;;;;;;;;;;5060882;28;20387;-61
2022/09/06 05:25:34;;;;;;;21.43;19.27;;;;;;;;;;5064161;28;20125;-61
2022/09/06 05:28:00;;;;;;;22.23;19.60;;;;;;;;;;5070616;28;20044;-61
2022/09/06 05:30:26;;;;;;;23.83;19.80;;;;;;;;;;5070072;28;20064;-61
2022/09/06 05:32:54;;;;;;;22.93;20.57;;;;;;;;;;5070154;28;20130;-61
2022/09/06 05:35:20;;;;;;;21.27;19.17;;;;;;;;;;5070157;28;20262;-61
2022/09/06 05:37:46;;;;;;;22.13;19.80;;;;;;;;;;5069041;28;20036;-61
2022/09/06 05:40:12;;;;;;;19.87;16.07;;;;;;;;;;5069682;28;20499;-61
2022/09/06 05:42:39;;;;;;;19.33;17.13;;;;;;;;;;5069800;28;20114;-61
2022/09/06 05:45:06;;;;;;;20.03;18.03;;;;;;;;;;5069140;28;20056;-62
2022/09/06 05:47:34;;;;;;;20.70;18.60;;;;;;;;;;5062730;28;20044;-61
2022/09/06 05:50:00;;;;;;;19.00;14.60;;;;;;;;;;5070070;28;20052;-61
2022/09/06 05:52:26;;;;;;;22.07;18.00;;;;;;;;;;5058134;28;20102;-61
2022/09/06 05:54:52;;;;;;;17.17;13.90;;;;;;;;;;5065153;28;20106;-61
2022/09/06 05:57:18;;;;;;;16.87;14.67;;;;;;;;;;5061477;28;20051;-61
2022/09/06 05:59:44;;;;;;;15.97;14.43;;;;;;;;;;5069678;28;20052;-61
2022/09/06 06:02:10;;;;;;;16.80;14.43;;;;;;;;;;5069064;28;20048;-61
2022/09/06 06:04:36;;;;;;;17.43;12.63;;;;;;;;;;5070247;28;20048;-61
2022/09/06 06:07:02;;;;;;;14.37;12.70;;;;;;;;;;5069825;28;20043;-61
2022/09/06 06:09:28;;;;;;;13.63;11.67;;;;;;;;;;5057900;28;20118;-62
2022/09/06 06:11:54;;;;;;;15.03;12.30;;;;;;;;;;5064936;28;20518;-61
2022/09/06 06:14:20;;;;;;;13.30;11.87;;;;;;;;;;5067228;28;20052;-61
2022/09/06 06:16:46;;;;;;;14.20;12.10;;;;;;;;;;5063063;28;20080;-60
2022/09/06 06:19:13;;;;;;;13.17;11.80;;;;;;;;;;5060666;28;20079;-61
2022/09/06 06:21:39;;;;;;;16.60;14.13;;;;;;;;;;5065914;28;20060;-61
2022/09/06 06:24:05;;;;;;;14.73;13.23;;;;;;;;;;5064851;28;20079;-61
2022/09/06 06:26:33;;;;;;;17.47;13.80;;;;;;;;;;5068430;28;20055;-62
2022/09/06 06:29:00;;;;;;;16.47;14.77;;;;;;;;;;5061275;28;20040;-61
2022/09/06 06:31:27;;;;;;;18.67;14.77;;;;;;;;;;5061332;28;20098;-62
2022/09/06 06:33:53;;;;;;;15.33;13.83;;;;;;;;;;5069507;28;20048;-62
2022/09/06 06:36:21;;;;;;;16.37;14.20;;;;;;;;;;5060272;28;20076;-62
2022/09/06 06:38:47;;;;;;;15.87;14.27;;;;;;;;;;5069426;28;20530;-61
2022/09/06 06:41:15;;;;;;;17.40;15.70;;;;;;;;;;5067853;28;20044;-61
2022/09/06 06:43:41;;;;;;;15.57;14.00;;;;;;;;;;5061039;28;20047;-61
2022/09/06 06:46:11;;;;;;;16.67;14.13;;;;;;;;;;5068781;28;20048;-63
2022/09/06 06:48:39;;;;;;;19.80;16.57;;;;;;;;;;5060351;28;20498;-62
2022/09/06 06:51:06;;;;;;;15.60;14.00;;;;;;;;;;5068703;28;20044;-62
2022/09/06 06:53:32;;;;;;;18.27;16.50;;;;;;;;;;5065860;28;20132;-62
2022/09/06 06:55:58;;;;;;;17.20;15.50;;;;;;;;;;5062885;28;20127;-61
2022/09/06 06:58:24;;;;;;;17.33;15.53;;;;;;;;;;5068073;28;20044;-61
2022/09/06 07:00:51;;;;;;;17.90;14.10;;;;;;;;;;5069073;28;20057;-62
2022/09/06 07:03:17;;;;;;;18.30;15.13;;;;;;;;;;5068901;28;20048;-62
2022/09/06 07:05:44;;;;;;;15.87;14.43;;;;;;;;;;5056975;28;20862;-62
2022/09/06 07:08:10;;;;;;;17.03;15.27;;;;;;;;;;5062542;28;20144;-62
2022/09/06 07:10:37;;;;;;;19.47;15.57;;;;;;;;;;5068405;28;20398;-62
2022/09/06 07:13:03;;;;;;;15.77;14.23;;;;;;;;;;5063357;28;20124;-62
2022/09/06 07:15:29;;;;;;;16.67;14.97;;;;;;;;;;5065133;28;20387;-61
2022/09/06 07:17:55;;;;;;;15.60;13.90;;;;;;;;;;5068226;28;20101;-62
2022/09/06 07:20:22;;;;;;;18.00;15.73;;;;;;;;;;5060544;28;20041;-62
2022/09/06 07:22:57;;;;;;;15.33;13.80;;;;;;;;;;5067471;28;20060;-61
2022/09/06 07:25:24;;;;;;;15.97;14.17;;;;;;;;;;5068074;28;20043;-61
2022/09/06 07:27:55;;;;;;;13.77;12.40;;;;;;;;;;5067633;28;20037;-60
2022/09/06 07:30:21;;;;;;;16.60;14.70;;;;;;;;;;5067847;28;20055;-61
2022/09/06 07:32:47;;;;;;;21.30;17.63;;;;;;;;;;5067867;28;20482;-61
2022/09/06 07:35:13;;;;;;;17.43;15.50;;;;;;;;;;5068388;28;20123;-62
2022/09/06 07:37:40;;;;;;;17.00;15.13;;;;;;;;;;5067989;28;20655;-61
2022/09/06 07:40:06;;;;;;;16.80;15.00;;;;;;;;;;5059728;28;20112;-61
2022/09/06 07:42:32;;;;;;;16.43;14.73;;;;;;;;;;5067912;28;20093;-61
2022/09/06 07:44:58;;;;;;;16.57;14.97;;;;;;;;;;5067693;28;20136;-61
2022/09/06 07:47:24;;;;;;;14.73;13.27;;;;;;;;;;5067790;28;20668;-61
2022/09/06 07:49:50;;;;;;;13.93;12.43;;;;;;;;;;5059295;28;20135;-61
2022/09/06 07:52:16;;;;;;;12.63;11.17;;;;;;;;;;5056228;28;20055;-61
2022/09/06 07:54:42;;;;;;;12.73;11.53;;;;;;;;;;5063111;28;20044;-61
2022/09/06 07:57:09;;;;;;;18.73;11.30;;;;;;;;;;5059383;28;20048;-61
2022/09/06 07:59:35;;;;;;;13.77;10.87;;;;;;;;;;5067868;28;20040;-61
2022/09/06 08:02:01;;;;;;;12.67;10.50;;;;;;;;;;5067228;28;20113;-61
2022/09/06 08:04:28;;;;;;;12.33;10.57;;;;;;;;;;5056656;28;20045;-61
2022/09/06 08:06:56;;;;;;;10.90;9.77;;;;;;;;;;5067500;28;20055;-61
2022/09/06 08:09:22;;;;;;;12.20;9.53;;;;;;;;;;5071474;28;20059;-61
2022/09/06 08:11:49;;;;;;;11.67;9.47;;;;;;;;;;5071240;28;20514;-61
2022/09/06 08:14:15;;;;;;;13.47;11.77;;;;;;;;;;5071708;28;20052;-61
2022/09/06 08:16:41;;;;;;;18.43;12.60;;;;;;;;;;5071301;28;20033;-61
2022/09/06 08:19:08;;;;;;;17.00;13.07;;;;;;;;;;5071995;28;20084;-61
2022/09/06 08:21:34;;;;;;;13.83;12.53;;;;;;;;;;5071216;28;20072;-61
2022/09/06 08:24:01;;;;;;;14.20;12.80;;;;;;;;;;5072032;28;20052;-61
2022/09/06 08:26:27;;;;;;;13.57;12.23;;;;;;;;;;5071126;28;20101;-61
2022/09/06 08:28:54;;;;;;;14.13;12.00;;;;;;;;;;5071814;28;20047;-60
2022/09/06 08:31:20;;;;;;;12.10;10.90;;;;;;;;;;5063889;28;20048;-61
2022/09/06 08:33:46;;;;;;;11.07;9.60;;;;;;;;;;5070261;28;20068;-61
2022/09/06 08:36:12;;;;;;;10.80;9.80;;;;;;;;;;5071479;28;20049;-61
2022/09/06 08:38:38;;;;;;;10.23;8.73;;;;;;;;;;5070658;28;20131;-61
2022/09/06 08:41:06;;;;;;;10.03;8.97;;;;;;;;;;5062881;28;20072;-61
2022/09/06 08:43:33;;;;;;;9.27;8.10;;;;;;;;;;5071147;28;20048;-61
2022/09/06 08:45:59;;;;;;;12.47;9.87;;;;;;;;;;5071139;28;20151;-61
2022/09/06 08:48:29;;;;;;;9.33;8.43;;;;;;;;;;5070852;28;20547;-61
2022/09/06 08:51:14;;;;;;;8.63;7.67;;;;;;;;;;5071128;28;20094;-60
2022/09/06 08:53:45;;;;;;;10.90;8.40;;;;;;;;;;5070577;28;20110;-61
2022/09/06 08:56:22;;;;;;;9.67;8.67;;;;;;;;;;5069921;28;20142;-61
2022/09/06 08:59:11;;;;;;;9.57;8.40;;;;;;;;;;5071146;28;20334;-61
2022/09/06 09:01:51;;;;;;;8.70;7.80;;;;;;;;;;5070585;28;20032;-61
2022/09/06 09:04:21;;;;;;;8.57;6.57;;;;;;;;;;5070566;28;20095;-61
2022/09/06 09:06:50;;;;;;;9.35;8.20;;;;;;;;;;5070756;28;20510;-61
2022/09/06 09:09:16;;;;;;;8.73;7.28;;;;;;;;;;5070350;28;20056;-61
2022/09/06 09:11:43;;;;;;;8.85;6.95;;;;;;;;;;5070710;28;20044;-61
2022/09/06 09:14:18;;;;;;;7.70;6.90;;;;;;;;;;5070164;28;20048;-61
2022/09/06 09:16:44;;;;;;;8.73;7.57;;;;;;;;;;5070171;28;20170;-61
2022/09/06 09:19:10;;;;;;;9.15;7.18;;;;;;;;;;5070374;28;20530;-61
2022/09/06 09:21:38;;;;;;;7.22;6.47;;;;;;;;;;5070202;28;20044;-61
2022/09/06 09:24:06;;;;;;;10.43;7.47;;;;;;;;;;5070102;28;20057;-60
2022/09/06 09:26:35;;;;;;;10.07;6.50;;;;;;;;;;5069869;28;20131;-61
2022/09/06 09:29:03;;;;;;;9.10;6.43;;;;;;;;;;5070077;28;20091;-60
2022/09/06 09:31:35;;;;;;;9.20;6.80;;;;;;;;;;5070627;28;20559;-61
2022/09/06 09:34:03;;;;;;;7.93;5.57;;;;;;;;;;5069876;28;20052;-60
2022/09/06 09:36:29;;;;;;;8.65;6.25;;;;;;;;;;5069497;28;20037;-62
2022/09/06 09:38:57;;;;;;;9.45;6.40;;;;;;;;;;5061986;28;20392;-61
2022/09/06 09:41:31;;;;;;;7.80;6.40;;;;;;;;;;5070096;28;20056;-61
2022/09/06 09:43:59;;;;;;;10.85;7.65;;;;;;;;;;5069725;28;20058;-61
2022/09/06 09:46:25;;;;;;;7.68;6.97;;;;;;;;;;5069990;28;20041;-62
2022/09/06 09:49:00;;;;;;;10.77;6.70;;;;;;;;;;5069951;28;20052;-62
2022/09/06 09:51:27;;;;;;;7.32;5.90;;;;;;;;;;5069200;28;20083;-62
2022/09/06 09:54:12;;;;;;;8.15;6.45;;;;;;;;;;5069601;28;20052;-62
2022/09/06 09:56:47;;;;;;;6.72;6.03;;;;;;;;;;5069846;28;20525;-61
2022/09/06 09:59:17;;;;;;;7.68;5.82;;;;;;;;;;5069414;28;20044;-60
2022/09/06 10:01:43;;;;;;;10.60;6.15;;;;;;;;;;5063554;28;20131;-60
2022/09/06 10:04:10;;;;;;;7.90;5.88;;;;;;;;;;5067720;28;20135;-60
2022/09/06 10:06:37;;;;;;;7.40;6.05;;;;;;;;;;5069301;28;20469;-61
2022/09/06 10:09:20;;;;;;;11.25;4.63;;;;;;;;;;5069516;28;20044;-60
2022/09/06 10:11:46;;;;;;;;;;;;;;;;;;5069368;28;20048;-60
2022/09/06 10:14:19;;;;;;;5.72;4.30;;;;;;;;;;5069498;28;20283;-61
2022/09/06 10:16:45;;;;;;;8.38;6.20;;;;;;;;;;5069711;28;20102;-60
2022/09/06 10:19:21;;;;;;;7.53;5.63;;;;;;;;;;5069028;28;20427;-60
2022/09/06 10:21:48;;;;;;;5.55;4.97;;;;;;;;;;5069533;28;20049;-60
2022/09/06 10:24:26;;;;;;;6.15;5.07;;;;;;;;;;5069464;28;20457;-60
2022/09/06 10:27:01;;;;;;;9.27;6.32;;;;;;;;;;5061310;28;20040;-60
2022/09/06 10:29:33;;;;;;;7.90;5.68;;;;;;;;;;5068854;28;20045;-61
2022/09/06 10:32:08;;;;;;;8.75;6.03;;;;;;;;;;5069560;28;20080;-61
2022/09/06 10:34:37;;;;;;;10.63;7.43;;;;;;;;;;5069132;28;20427;-60
2022/09/06 10:37:27;;;;;;;10.27;7.82;;;;;;;;;;5068497;28;20040;-60
2022/09/06 10:40:16;;;;;;;15.48;6.85;;;;;;;;;;5058414;28;20114;-61
2022/09/06 10:42:51;;;;;;;8.75;6.85;;;;;;;;;;5068656;28;20048;-60
2022/09/06 10:45:17;;;;;;;6.90;6.20;;;;;;;;;;5068572;28;20041;-61
2022/09/06 10:47:55;;;;;;;7.80;6.80;;;;;;;;;;5068604;28;20091;-62
2022/09/06 10:50:22;;;;;;;8.02;5.88;;;;;;;;;;5068319;28;20462;-61
2022/09/06 10:52:50;;;;;;;7.78;5.65;;;;;;;;;;5068932;28;20410;-61
2022/09/06 10:55:18;;;;;;;6.18;5.45;;;;;;;;;;5064132;28;20509;-61
2022/09/06 10:57:46;;;;;;;8.57;5.45;;;;;;;;;;5065202;28;20442;-61
2022/09/06 11:00:13;;;;;;;9.57;5.95;;;;;;;;;;5060292;28;20093;-60
2022/09/06 11:02:39;;;;;;;8.52;4.50;;;;;;;;;;5067727;28;20064;-61
2022/09/06 11:05:07;;;;;;;5.43;4.38;;;;;;;;;;5067963;28;20486;-61
2022/09/06 11:07:36;;;;;;;6.00;3.25;;;;;;;;;;5068259;28;20059;-61
2022/09/06 11:10:02;;;;;;;8.27;4.97;;;;;;;;;;5067786;28;20061;-60
2022/09/06 11:12:32;;;;;;;8.82;5.32;;;;;;;;;;5068408;28;20399;-61
2022/09/06 11:15:00;;;;;;;6.95;5.95;;;;;;;;;;5069020;28;20072;-61
2022/09/06 11:17:42;;;;;;;6.57;5.22;;;;;;;;;;5069246;28;20466;-61
2022/09/06 11:20:13;;;;;;;6.90;3.80;;;;;;;;;;5068127;28;20044;-61
2022/09/06 11:22:45;;;;;;;6.32;3.78;;;;;;;;;;5068014;28;20044;-61
2022/09/06 11:25:38;;;;;;;7.03;3.45;;;;;;;;;;5068646;28;20410;-61
2022/09/06 11:28:08;;;;;;;5.10;4.13;;;;;;;;;;5067722;28;20135;-61
2022/09/06 11:30:34;;;;;;;5.57;3.90;;;;;;;;;;5067970;28;20051;-61
2022/09/06 11:33:17;;;;;;;4.53;2.60;;;;;;;;;;5060130;28;20097;-61
2022/09/06 11:35:43;;;;;;;3.40;2.53;;;;;;;;;;5061129;28;20056;-61
2022/09/06 11:38:15;;;;;;;6.43;2.97;;;;;;;;;;5067767;28;20049;-61
2022/09/06 11:40:46;;;;;;;7.70;3.75;;;;;;;;;;5068420;28;20049;-61
2022/09/06 11:43:12;;;;;;;4.38;2.40;;;;;;;;;;5067580;28;20055;-61
2022/09/06 11:45:38;;;;;;;4.68;2.20;;;;;;;;;;5059247;28;20040;-61
2022/09/06 11:48:22;;;;;;;2.85;2.08;;;;;;;;;;5068126;28;20487;-61
2022/09/06 11:50:57;;;;;;;4.72;2.40;;;;;;;;;;5062202;28;20045;-62
2022/09/06 11:53:47;;;;;;;3.92;3.30;;;;;;;;;;5067075;28;20558;-61
2022/09/06 11:56:23;;;;;;;4.15;2.50;;;;;;;;;;5029854;28;20057;-62
2022/09/06 11:58:49;;;;;;;5.03;2.35;;;;;;;;;;5067079;28;20132;-62
2022/09/06 12:01:17;;;;;;;3.97;2.92;;;;;;;;;;5067796;28;20123;-61
2022/09/06 12:03:46;;;;;;;3.20;2.47;;;;;;;;;;5068148;28;20049;-61
2022/09/06 12:06:19;;;;;;;4.72;3.17;;;;;;;;;;5067854;28;20040;-62
2022/09/06 12:08:46;;;;;;;5.70;2.70;;;;;;;;;;5068081;28;20045;-61
2022/09/06 12:11:25;;;;;;;4.82;1.98;;;;;;;;;;5067660;28;20133;-61
2022/09/06 12:14:01;;;;;;;4.47;2.05;;;;;;;;;;5060436;28;20154;-61
2022/09/06 12:16:46;;;;;;;4.32;1.80;;;;;;;;;;5067155;28;20102;-61
2022/09/06 12:19:32;;;;;;;2.72;2.00;;;;;;;;;;5060801;28;20522;-61
2022/09/06 12:21:58;;;;;;;2.60;1.80;;;;;;;;;;5060313;28;20045;-61
2022/09/06 12:24:33;;;;;;;4.95;1.98;;;;;;;;;;5067296;28;20119;-61
2022/09/06 12:27:08;;;;;;;3.65;2.10;;;;;;;;;;5060360;28;20044;-61
2022/09/06 12:29:34;;;;;;;3.85;1.98;;;;;;;;;;5059270;28;20047;-61
2022/09/06 12:32:00;;;;;;;4.75;2.25;;;;;;;;;;5067305;28;20032;-62
2022/09/06 12:34:30;;;;;;;3.45;2.03;;;;;;;;;;5066782;28;20123;-61
2022/09/06 12:36:58;;;;;;;5.45;2.00;;;;;;;;;;5059265;28;20037;-62
2022/09/06 12:39:24;;;;;;;5.75;1.98;;;;;;;;;;5067102;28;20032;-61
2022/09/06 12:41:54;;;;;;;3.30;1.95;;;;;;;;;;5066726;28;20067;-62
2022/09/06 12:44:32;;;;;;;5.90;1.75;;;;;;;;;;5067357;28;20040;-61
2022/09/06 12:47:02;;;;;;;4.53;1.85;;;;;;;;;;5067189;28;20044;-61
2022/09/06 12:49:28;;;;;;;4.13;2.15;;;;;;;;;;5067421;28;20441;-62
2022/09/06 12:52:05;;;;;;;4.18;2.05;;;;;;;;;;5069378;28;20048;-61
2022/09/06 12:54:31;;;;;;;3.25;1.92;;;;;;;;;;5070035;28;20129;-61
2022/09/06 12:57:11;;;;;;;3.88;1.98;;;;;;;;;;5071143;28;20079;-61
2022/09/06 12:59:37;;;;;;;6.10;2.10;;;;;;;;;;5071288;28;20049;-61
2022/09/06 13:02:12;;;;;;;2.92;1.67;;;;;;;;;;5070546;28;20043;-62
2022/09/06 13:04:43;;;;;;;5.10;2.25;;;;;;;;;;5070987;28;20044;-61
2022/09/06 13:07:13;;;;;;;4.15;1.90;;;;;;;;;;5070322;28;20044;-62
2022/09/06 13:09:42;;;;;;;4.50;1.90;;;;;;;;;;5070723;28;20120;-61
2022/09/06 13:12:09;;;;;;;4.35;2.00;;;;;;;;;;5070626;28;20052;-62
2022/09/06 13:14:36;;;;;;;7.55;2.40;;;;;;;;;;5070734;28;20044;-61
2022/09/06 13:17:02;;;;;;;5.28;1.80;;;;;;;;;;5070118;28;20048;-61
2022/09/06 13:19:30;;;;;;;4.45;1.92;;;;;;;;;;5070673;28;20044;-62
2022/09/06 13:21:57;;;;;;;3.28;1.65;;;;;;;;;;5062198;28;20048;-62
2022/09/06 13:24:35;;;;;;;3.53;2.05;;;;;;;;;;5070072;28;20416;-62
2022/09/06 13:27:20;;;;;;;2.40;1.52;;;;;;;;;;5062547;28;20051;-62
2022/09/06 13:29:54;;;;;;;5.50;1.67;;;;;;;;;;5070271;28;20445;-62
2022/09/06 13:32:20;;;;;;;4.55;1.70;;;;;;;;;;5070103;28;20036;-62
2022/09/06 13:34:55;;;;;;;2.63;1.55;;;;;;;;;;5069982;28;20537;-62
2022/09/06 13:37:23;;;;;;;3.33;1.90;;;;;;;;;;5070093;28;20048;-62
2022/09/06 13:39:50;;;;;;;4.75;1.95;;;;;;;;;;5069974;28;20124;-62
2022/09/06 13:42:34;;;;;;;4.00;1.95;;;;;;;;;;5070255;28;20174;-62
2022/09/06 13:45:19;;;;;;;2.78;1.92;;;;;;;;;;5061682;28;20502;-61
2022/09/06 13:47:45;;;;;;;4.00;2.00;;;;;;;;;;5064026;28;20048;-62
2022/09/06 13:50:11;;;;;;;2.47;1.58;;;;;;;;;;5069198;28;20075;-61
2022/09/06 13:52:37;;;;;;;5.30;1.80;;;;;;;;;;5069546;28;20472;-62
2022/09/06 13:55:03;;;;;;;4.50;1.70;;;;;;;;;;5069683;28;20084;-62
2022/09/06 13:57:29;;;;;;;6.32;2.15;;;;;;;;;;5069587;28;20059;-62
2022/09/06 13:59:55;;;;;;;4.00;1.55;;;;;;;;;;5069830;28;20447;-62
2022/09/06 14:02:23;;;;;;;4.90;1.65;;;;;;;;;;5068609;28;20045;-61
2022/09/06 14:04:49;;;;;;;7.30;1.73;;;;;;;;;;5061058;28;20453;-61
2022/09/06 14:07:16;;;;;;;4.43;1.88;;;;;;;;;;5069306;28;20041;-62
2022/09/06 14:09:42;;;;;;;5.90;2.08;;;;;;;;;;5069443;28;20105;-62
2022/09/06 14:12:09;;;;;;;4.88;2.00;;;;;;;;;;5069556;28;20099;-61
2022/09/06 14:14:35;;;;;;;3.75;1.90;;;;;;;;;;5068403;28;20147;-62
2022/09/06 14:17:01;;;;;;;4.68;1.70;;;;;;;;;;5069775;28;20044;-62
2022/09/06 14:19:27;;;;;;;2.13;1.50;;;;;;;;;;5069322;28;20052;-61
2022/09/06 14:21:53;;;;;;;2.90;1.80;;;;;;;;;;5068664;28;20052;-61
2022/09/06 14:24:19;;;;;;;3.55;1.70;;;;;;;;;;5069620;28;20089;-61
2022/09/06 14:26:45;;;;;;;6.95;1.70;;;;;;;;;;5069265;28;20040;-61
2022/09/06 14:29:11;;;;;;;3.38;1.77;;;;;;;;;;5068943;28;21012;-62
2022/09/06 14:31:38;;;;;;;3.88;1.65;;;;;;;;;;5059432;28;20139;-62
2022/09/06 14:34:04;;;;;;;5.80;1.90;;;;;;;;;;5069313;28;20050;-62
2022/09/06 14:36:31;;;;;;;3.45;2.00;;;;;;;;;;5068385;28;20036;-62
2022/09/06 14:38:58;;;;;;;4.43;1.48;;;;;;;;;;5068701;28;20044;-62
2022/09/06 14:41:25;;;;;;;4.00;1.60;;;;;;;;;;5068786;28;20040;-62
2022/09/06 14:43:52;;;;;;;4.65;1.48;;;;;;;;;;5068588;28;20106;-62
2022/09/06 14:46:18;;;;;;;3.20;1.88;;;;;;;;;;5068640;28;20202;-62